createdAt,value
2023-03-12T00:00:27.915Z,99537.28
2023-03-12T00:02:57.249Z,99386.88
2023-03-12T00:05:26.932Z,99546.00
2023-03-12T00:07:53.936Z,99590.19
2023-03-12T00:10:23.160Z,99733.25
2023-03-12T00:12:52.377Z,99706.72
2023-03-12T00:15:22.172Z,99659.75
2023-03-12T00:17:48.962Z,99661.31
2023-03-12T00:20:15.995Z,99618.72
2023-03-12T00:22:42.741Z,99616.69
2023-03-12T00:25:17.328Z,99738.00
2023-03-12T00:27:46.539Z,99743.91
2023-03-12T00:30:16.327Z,99742.34
2023-03-12T00:32:43.093Z,99567.88
2023-03-12T00:35:10.049Z,99650.00
2023-03-12T00:37:39.153Z,99697.59
2023-03-12T00:40:10.704Z,99664.91
2023-03-12T00:42:42.212Z,99691.09
2023-03-12T00:45:09.682Z,99600.16
2023-03-12T00:47:38.749Z,99693.31
2023-03-12T00:50:06.041Z,99666.16
2023-03-12T00:52:32.928Z,99753.00
2023-03-12T00:55:02.141Z,99793.56
2023-03-12T00:57:29.153Z,99723.47
2023-03-12T00:59:55.889Z,99662.97
2023-03-12T01:02:22.744Z,99785.63
2023-03-12T01:04:56.659Z,99667.97
2023-03-12T01:07:23.805Z,99788.66
2023-03-12T01:09:52.997Z,99761.31
2023-03-12T01:12:22.094Z,99702.47
2023-03-12T01:14:48.900Z,99715.28
2023-03-12T01:17:15.776Z,99763.75
2023-03-12T01:19:42.547Z,99672.28
2023-03-12T01:22:13.816Z,99704.13
2023-03-12T01:24:42.903Z,99605.06
2023-03-12T01:27:12.035Z,99775.53
2023-03-12T01:29:41.291Z,99745.44
2023-03-12T01:32:10.512Z,99679.50
2023-03-12T01:34:39.481Z,99687.66
2023-03-12T01:37:08.805Z,99767.72
2023-03-12T01:39:40.409Z,99656.41
2023-03-12T01:42:07.753Z,99688.00
2023-03-12T01:44:57.202Z,99793.97
2023-03-12T01:47:24.871Z,99626.28
2023-03-12T01:49:53.549Z,99611.16
2023-03-12T01:52:30.266Z,99623.31
2023-03-12T01:55:02.875Z,99826.22
2023-03-12T01:57:34.680Z,99796.00
2023-03-12T02:00:13.936Z,99812.91
2023-03-12T02:02:42.065Z,99829.88
2023-03-12T02:05:14.631Z,99766.44
2023-03-12T02:07:41.940Z,99641.94
2023-03-12T02:10:11.528Z,99759.13
2023-03-12T02:12:43.362Z,99768.25
2023-03-12T02:15:11.216Z,99608.16
2023-03-12T02:17:43.663Z,99710.69
2023-03-12T02:20:32.582Z,99751.34
2023-03-12T02:23:21.663Z,99847.97
2023-03-12T02:25:52.057Z,99863.81
2023-03-12T02:28:23.741Z,99863.63
2023-03-12T02:30:53.187Z,99869.47
2023-03-12T02:33:20.270Z,99878.56
2023-03-12T02:35:49.244Z,99872.38
2023-03-12T02:38:31.328Z,99875.81
2023-03-12T02:41:01.313Z,99891.72
2023-03-12T02:43:28.205Z,99901.34
2023-03-12T02:45:56.144Z,99902.06
2023-03-12T02:48:25.798Z,99899.88
2023-03-12T02:50:56.908Z,99896.31
2023-03-12T02:53:28.830Z,99894.59
2023-03-12T02:55:55.765Z,99896.25
2023-03-12T02:58:24.717Z,99904.69
2023-03-12T03:00:55.174Z,99893.81
2023-03-12T03:03:26.956Z,99906.66
2023-03-12T03:05:56.553Z,99922.56
2023-03-12T03:08:29.105Z,99922.91
2023-03-12T03:10:55.796Z,99926.16
2023-03-12T03:13:22.823Z,99925.53
2023-03-12T03:15:49.563Z,99934.75
2023-03-12T03:18:16.806Z,99932.09
2023-03-12T03:20:44.892Z,99932.41
2023-03-12T03:23:11.548Z,99934.00
2023-03-12T03:25:39.311Z,99920.03
2023-03-12T03:28:16.167Z,99923.56
2023-03-12T03:30:45.678Z,99941.00
2023-03-12T03:33:12.632Z,99949.88
2023-03-12T03:35:41.948Z,99956.28
2023-03-12T03:38:12.118Z,99949.09
2023-03-12T03:40:38.950Z,99955.59
2023-03-12T03:43:05.574Z,99956.38
2023-03-12T03:45:32.437Z,99956.88
2023-03-12T03:47:59.544Z,99959.44
2023-03-12T03:50:26.421Z,99955.59
2023-03-12T03:52:53.662Z,99960.31
2023-03-12T03:55:20.765Z,99957.97
2023-03-12T03:57:48.038Z,99958.91
2023-03-12T04:00:18.079Z,99957.56
2023-03-12T04:02:47.841Z,99978.97
2023-03-12T04:05:19.685Z,99967.38
2023-03-12T04:07:48.287Z,99976.06
2023-03-12T04:10:18.373Z,99972.91
2023-03-12T04:12:45.521Z,99973.09
2023-03-12T04:15:12.249Z,99985.34
2023-03-12T04:17:39.399Z,99996.66
2023-03-12T04:20:08.757Z,99997.25
2023-03-12T04:22:42.242Z,100010.44
2023-03-12T04:25:09.849Z,100018.59
2023-03-12T04:27:38.955Z,100020.78
2023-03-12T04:30:08.698Z,100033.25
2023-03-12T04:32:37.550Z,100035.41
2023-03-12T04:35:04.548Z,100035.22
2023-03-12T04:37:35.905Z,100046.50
2023-03-12T04:40:04.823Z,100047.03
2023-03-12T04:42:33.905Z,100057.72
2023-03-12T04:45:00.567Z,100052.53
2023-03-12T04:47:27.266Z,100060.56
2023-03-12T04:49:53.950Z,100057.31
2023-03-12T04:52:23.230Z,100061.38
2023-03-12T04:54:49.918Z,100073.56
2023-03-12T04:57:16.714Z,100067.97
2023-03-12T04:59:43.480Z,100080.25
2023-03-12T05:02:13.061Z,100079.97
2023-03-12T05:04:44.880Z,100077.13
2023-03-12T05:07:13.879Z,100083.81
2023-03-12T05:09:40.819Z,100086.06
2023-03-12T05:12:07.746Z,100081.63
2023-03-12T05:14:39.573Z,100091.78
2023-03-12T05:17:07.261Z,100092.28
2023-03-12T05:19:38.358Z,100084.00
2023-03-12T05:22:07.258Z,100087.44
2023-03-12T05:24:34.027Z,100080.88
2023-03-12T05:27:01.765Z,100097.09
2023-03-12T05:29:35.321Z,100100.53
2023-03-12T05:32:02.684Z,100103.78
2023-03-12T05:34:32.089Z,100103.69
2023-03-12T05:36:59.529Z,100109.38
2023-03-12T05:39:27.827Z,100115.41
2023-03-12T05:42:01.132Z,100106.81
2023-03-12T05:44:30.297Z,100108.50
2023-03-12T05:47:00.164Z,100111.66
2023-03-12T05:49:27.351Z,100121.00
2023-03-12T05:51:55.551Z,100129.06
2023-03-12T05:54:26.594Z,100128.88
2023-03-12T05:56:53.319Z,100141.47
2023-03-12T05:59:29.538Z,100143.22
2023-03-12T06:01:56.943Z,100143.34
2023-03-12T06:04:23.912Z,100150.44
2023-03-12T06:06:52.316Z,100144.63
2023-03-12T06:09:19.121Z,100159.06
2023-03-12T06:11:45.933Z,100157.97
2023-03-12T06:14:15.077Z,100170.47
2023-03-12T06:16:41.976Z,100165.06
2023-03-12T06:19:08.868Z,100179.91
2023-03-12T06:21:36.036Z,100180.28
2023-03-12T06:24:04.818Z,100184.91
2023-03-12T06:26:44.909Z,100185.81
2023-03-12T06:29:14.014Z,100176.94
2023-03-12T06:31:45.619Z,100191.34
2023-03-12T06:34:12.658Z,100195.97
2023-03-12T06:36:39.508Z,100193.16
2023-03-12T06:39:06.550Z,100198.94
2023-03-12T06:41:35.765Z,100205.00
2023-03-12T06:44:06.150Z,100209.19
2023-03-12T06:46:33.399Z,100203.38
2023-03-12T06:49:02.755Z,100214.00
2023-03-12T06:51:29.461Z,100214.59
2023-03-12T06:53:56.325Z,100218.94
2023-03-12T06:56:22.997Z,100225.31
2023-03-12T06:58:51.927Z,100232.44
2023-03-12T07:01:18.587Z,100236.53
2023-03-12T07:03:45.304Z,100236.47
2023-03-12T07:06:15.912Z,100233.59
2023-03-12T07:08:45.021Z,100237.59
2023-03-12T07:11:14.072Z,100241.28
2023-03-12T07:13:43.118Z,100242.19
2023-03-12T07:16:10.143Z,100248.69
2023-03-12T07:18:37.275Z,100250.34
2023-03-12T07:21:04.064Z,100255.72
2023-03-12T07:23:30.632Z,100252.66
2023-03-12T07:26:00.482Z,100259.53
2023-03-12T07:28:27.159Z,100258.69
2023-03-12T07:30:53.991Z,100266.19
2023-03-12T07:33:21.487Z,100268.91
2023-03-12T07:35:51.970Z,100272.22
2023-03-12T07:38:21.537Z,100278.94
2023-03-12T07:40:54.974Z,100273.16
2023-03-12T07:43:22.027Z,100278.47
2023-03-12T07:45:51.212Z,100279.16
2023-03-12T07:48:19.979Z,100280.53
2023-03-12T07:50:47.012Z,100274.88
2023-03-12T07:53:13.717Z,100277.81
2023-03-12T07:55:40.494Z,100280.94
2023-03-12T07:58:09.767Z,100284.81
2023-03-12T08:00:38.924Z,100283.97
2023-03-12T08:03:06.196Z,100287.31
2023-03-12T08:05:33.073Z,100288.00
2023-03-12T08:07:59.768Z,100289.72
2023-03-12T08:10:26.742Z,100289.19
2023-03-12T08:12:55.970Z,100291.56
2023-03-12T08:15:26.129Z,100291.03
2023-03-12T08:17:53.341Z,100293.84
2023-03-12T08:20:22.899Z,100300.66
2023-03-12T08:22:49.941Z,100297.38
2023-03-12T08:25:18.712Z,100300.69
2023-03-12T08:27:47.809Z,100302.41
2023-03-12T08:30:17.048Z,100300.41
2023-03-12T08:32:43.791Z,100295.88
2023-03-12T08:35:11.444Z,100303.38
2023-03-12T08:37:41.840Z,100311.66
2023-03-12T08:40:15.459Z,100308.75
2023-03-12T08:42:42.637Z,100305.91
2023-03-12T08:45:10.467Z,100303.69
2023-03-12T08:47:39.977Z,100306.00
2023-03-12T08:50:09.609Z,100306.25
2023-03-12T08:52:36.337Z,100305.41
2023-03-12T08:55:08.100Z,100298.44
2023-03-12T08:57:37.499Z,100294.81
2023-03-12T09:00:11.400Z,100295.47
2023-03-12T09:02:38.619Z,100291.75
2023-03-12T09:05:06.026Z,100285.63
2023-03-12T09:07:37.571Z,100283.59
2023-03-12T09:10:08.882Z,100282.13
2023-03-12T09:12:35.640Z,100281.38
2023-03-12T09:15:05.341Z,100284.06
2023-03-12T09:17:34.779Z,100286.81
2023-03-12T09:20:01.529Z,100284.44
2023-03-12T09:22:32.357Z,100281.41
2023-03-12T09:24:58.941Z,100281.69
2023-03-12T09:27:25.712Z,100284.28
2023-03-12T09:30:00.340Z,100271.22
2023-03-12T09:32:29.724Z,100275.34
2023-03-12T09:34:59.354Z,100275.47
2023-03-12T09:37:25.960Z,100277.34
2023-03-12T09:39:52.736Z,100278.00
2023-03-12T09:42:31.224Z,100275.78
2023-03-12T09:44:57.813Z,100272.88
2023-03-12T09:47:27.302Z,100275.63
2023-03-12T09:50:02.357Z,100271.91
2023-03-12T09:52:44.630Z,100265.63
2023-03-12T09:55:15.206Z,100265.88
2023-03-12T09:57:44.631Z,100267.25
2023-03-12T10:00:12.410Z,100259.75
2023-03-12T10:02:39.701Z,100264.38
2023-03-12T10:05:09.553Z,100264.75
2023-03-12T10:07:38.089Z,100270.00
2023-03-12T10:10:10.225Z,100261.41
2023-03-12T10:12:55.190Z,100256.97
2023-03-12T10:15:31.002Z,100261.47
2023-03-12T10:18:00.244Z,100267.75
2023-03-12T10:20:42.179Z,100269.66
2023-03-12T10:23:09.238Z,100272.56
2023-03-12T10:25:41.925Z,100274.25
2023-03-12T10:28:16.188Z,100274.22
2023-03-12T10:30:43.498Z,100275.81
2023-03-12T10:33:14.065Z,100268.00
2023-03-12T10:35:41.772Z,100265.06
2023-03-12T10:38:31.654Z,100264.34
2023-03-12T10:40:58.268Z,100271.91
2023-03-12T10:43:27.414Z,100272.09
2023-03-12T10:46:02.404Z,100268.09
2023-03-12T10:48:29.038Z,100270.59
2023-03-12T10:51:06.236Z,100272.69
2023-03-12T10:53:35.752Z,100274.59
2023-03-12T10:56:11.192Z,100277.03
2023-03-12T10:58:41.632Z,100272.94
2023-03-12T11:01:21.998Z,100272.75
2023-03-12T11:03:54.403Z,100275.41
2023-03-12T11:06:27.600Z,100278.66
2023-03-12T11:09:16.296Z,100278.66
2023-03-12T11:11:45.312Z,100272.63
2023-03-12T11:14:18.274Z,100271.59
2023-03-12T11:16:47.500Z,100277.81
2023-03-12T11:19:35.519Z,100278.16
2023-03-12T11:22:05.552Z,100274.97
2023-03-12T11:24:33.475Z,100278.56
2023-03-12T11:27:05.969Z,100267.00
2023-03-12T11:29:41.876Z,100278.75
2023-03-12T11:32:24.090Z,100072.16
2023-03-12T11:34:51.044Z,100274.34
2023-03-12T11:37:20.787Z,100279.72
2023-03-12T11:39:50.175Z,100274.41
2023-03-12T11:42:26.040Z,100270.78
2023-03-12T11:45:18.413Z,100273.88
2023-03-12T11:47:45.567Z,100277.25
2023-03-12T11:50:17.685Z,100266.97
2023-03-12T11:52:44.249Z,100267.00
2023-03-12T11:55:16.244Z,100251.94
2023-03-12T11:57:43.157Z,100258.31
2023-03-12T12:00:16.057Z,100265.41
2023-03-12T12:03:11.265Z,100260.94
2023-03-12T12:05:37.905Z,100262.81
2023-03-12T12:08:10.426Z,100256.09
2023-03-12T12:10:43.195Z,100263.59
2023-03-12T12:13:24.411Z,100250.34
2023-03-12T12:16:08.302Z,100255.06
2023-03-12T12:18:53.326Z,100244.22
2023-03-12T12:21:29.221Z,100242.09
2023-03-12T12:24:01.372Z,100251.03
2023-03-12T12:26:49.464Z,100239.44
2023-03-12T12:29:16.161Z,100233.53
2023-03-12T12:31:56.347Z,100234.22
2023-03-12T12:34:23.089Z,100235.78
2023-03-12T12:36:51.928Z,100226.75
2023-03-12T12:39:32.957Z,100225.69
2023-03-12T12:42:10.575Z,100236.59
2023-03-12T12:44:48.062Z,100225.31
2023-03-12T12:47:34.764Z,100235.28
2023-03-12T12:50:04.218Z,100226.03
2023-03-12T12:52:35.303Z,100222.59
2023-03-12T12:55:22.077Z,100227.06
2023-03-12T12:57:51.826Z,100220.97
2023-03-12T13:00:27.772Z,100226.25
2023-03-12T13:02:55.398Z,100232.34
2023-03-12T13:05:22.042Z,100226.25
2023-03-12T13:07:50.927Z,100227.94
2023-03-12T13:10:32.296Z,100226.22
2023-03-12T13:12:59.170Z,100226.97
2023-03-12T13:15:28.899Z,100222.59
2023-03-12T13:17:55.723Z,100228.81
2023-03-12T13:20:23.183Z,100218.09
2023-03-12T13:23:01.027Z,100215.84
2023-03-12T13:25:30.928Z,100219.59
2023-03-12T13:28:23.284Z,100215.53
2023-03-12T13:30:52.614Z,100217.66
2023-03-12T13:33:21.795Z,100220.94
2023-03-12T13:36:23.892Z,100216.81
2023-03-12T13:38:59.876Z,100227.72
2023-03-12T13:41:36.076Z,100224.28
2023-03-12T13:44:21.475Z,100242.38
2023-03-12T13:46:48.158Z,100234.66
2023-03-12T13:49:15.451Z,100234.03
2023-03-12T13:51:46.265Z,100229.72
2023-03-12T13:54:18.743Z,100229.28
2023-03-12T13:56:47.046Z,100230.91
2023-03-12T13:59:18.022Z,100226.56
2023-03-12T14:01:48.323Z,100226.25
2023-03-12T14:04:19.113Z,100226.09
2023-03-12T14:06:48.887Z,100228.47
2023-03-12T14:09:24.622Z,100233.84
2023-03-12T14:11:57.159Z,100221.09
2023-03-12T14:14:29.851Z,100229.44
2023-03-12T14:16:57.056Z,100229.38
2023-03-12T14:19:24.558Z,100233.31
2023-03-12T14:21:51.176Z,100228.59
2023-03-12T14:24:20.214Z,100236.88
2023-03-12T14:26:46.964Z,100238.28
2023-03-12T14:29:19.046Z,100233.69
2023-03-12T14:31:48.098Z,100246.50
2023-03-12T14:34:20.505Z,100252.78
2023-03-12T14:36:56.257Z,100241.38
2023-03-12T14:39:22.814Z,100247.00
2023-03-12T14:41:54.522Z,100251.66
2023-03-12T14:44:22.960Z,100244.66
2023-03-12T14:46:59.505Z,100242.28
2023-03-12T14:49:26.742Z,100235.78
2023-03-12T14:51:56.055Z,100238.75
2023-03-12T14:54:27.112Z,100237.22
2023-03-12T14:56:56.458Z,100236.38
2023-03-12T14:59:31.670Z,100229.75
2023-03-12T15:02:20.968Z,100231.44
2023-03-12T15:04:51.281Z,100230.69
2023-03-12T15:07:31.878Z,100236.75
2023-03-12T15:10:01.014Z,100238.88
2023-03-12T15:12:31.868Z,100242.72
2023-03-12T15:15:04.382Z,100248.94
2023-03-12T15:17:33.774Z,100249.56
2023-03-12T15:20:01.733Z,100253.84
2023-03-12T15:22:28.282Z,100250.69
2023-03-12T15:24:54.934Z,100288.50
2023-03-12T15:27:21.566Z,100255.25
2023-03-12T15:29:48.159Z,100265.44
2023-03-12T15:32:18.055Z,100263.38
2023-03-12T15:34:48.122Z,100277.00
2023-03-12T15:37:32.543Z,100276.94
2023-03-12T15:40:02.130Z,100278.75
2023-03-12T15:42:28.924Z,100278.75
2023-03-12T15:44:58.958Z,100267.34
2023-03-12T15:47:27.146Z,100280.53
2023-03-12T15:49:55.465Z,100279.50
2023-03-12T15:52:27.504Z,100279.63
2023-03-12T15:55:03.553Z,100277.53
2023-03-12T15:57:34.118Z,100294.09
2023-03-12T16:00:12.342Z,100293.41
2023-03-12T16:02:40.254Z,100314.09
2023-03-12T16:05:08.189Z,100324.78
2023-03-12T16:07:37.481Z,100325.88
2023-03-12T16:10:04.569Z,100322.81
2023-03-12T16:12:31.196Z,100317.03
2023-03-12T16:14:57.793Z,100326.75
2023-03-12T16:17:24.502Z,100328.31
2023-03-12T16:19:51.037Z,100331.13
2023-03-12T16:22:18.313Z,100333.41
2023-03-12T16:24:44.891Z,100335.69
2023-03-12T16:27:14.049Z,100336.88
2023-03-12T16:29:42.381Z,100349.84
2023-03-12T16:32:15.697Z,100344.81
2023-03-12T16:34:44.926Z,100353.22
2023-03-12T16:37:12.129Z,100356.19
2023-03-12T16:39:39.031Z,100353.16
2023-03-12T16:42:18.761Z,100353.16
2023-03-12T16:44:46.372Z,100357.31
2023-03-12T16:47:16.173Z,100359.78
2023-03-12T16:49:43.382Z,100359.81
2023-03-12T16:52:20.253Z,100362.81
2023-03-12T16:54:48.513Z,100363.28
2023-03-12T16:57:35.403Z,100359.75
2023-03-12T17:00:02.392Z,100373.19
2023-03-12T17:02:31.670Z,100384.63
2023-03-12T17:04:58.692Z,100385.03
2023-03-12T17:07:25.351Z,100382.75
2023-03-12T17:09:54.419Z,100390.22
2023-03-12T17:12:23.169Z,100388.38
2023-03-12T17:14:50.090Z,100391.38
2023-03-12T17:17:19.825Z,100395.97
2023-03-12T17:19:49.453Z,100395.44
2023-03-12T17:22:16.278Z,100391.59
2023-03-12T17:24:44.908Z,100389.16
2023-03-12T17:27:11.510Z,100389.25
2023-03-12T17:29:38.222Z,100380.88
2023-03-12T17:32:04.925Z,100390.31
2023-03-12T17:34:33.910Z,100393.63
2023-03-12T17:37:01.653Z,100398.06
2023-03-12T17:39:30.774Z,100397.53
2023-03-12T17:41:57.833Z,100393.97
2023-03-12T17:44:32.843Z,100395.69
2023-03-12T17:47:00.034Z,100391.41
2023-03-12T17:49:27.540Z,100393.72
2023-03-12T17:51:54.208Z,100387.03
2023-03-12T17:54:22.122Z,100391.69
2023-03-12T17:56:48.960Z,100384.75
2023-03-12T17:59:15.627Z,100384.78
2023-03-12T18:01:42.295Z,100384.78
2023-03-12T18:04:08.889Z,100392.50
2023-03-12T18:06:41.041Z,100393.63
2023-03-12T18:09:07.701Z,100387.72
2023-03-12T18:11:37.271Z,100386.66
2023-03-12T18:14:08.152Z,100388.97
2023-03-12T18:16:34.818Z,100395.34
2023-03-12T18:19:06.288Z,100388.50
2023-03-12T18:21:35.232Z,100385.47
2023-03-12T18:24:11.730Z,100391.56
2023-03-12T18:26:40.329Z,100400.59
2023-03-12T18:29:07.020Z,100411.47
2023-03-12T18:31:36.106Z,100406.00
2023-03-12T18:34:03.134Z,100411.97
2023-03-12T18:36:30.052Z,100419.81
2023-03-12T18:38:59.486Z,100413.31
2023-03-12T18:41:30.426Z,100414.25
2023-03-12T18:43:59.624Z,100427.06
2023-03-12T18:46:26.235Z,100426.47
2023-03-12T18:48:55.310Z,100436.72
2023-03-12T18:51:22.029Z,100432.38
2023-03-12T18:53:48.693Z,100425.88
2023-03-12T18:56:15.505Z,100415.19
2023-03-12T18:58:42.098Z,100433.09
2023-03-12T19:01:13.051Z,100427.13
2023-03-12T19:03:42.589Z,100418.25
2023-03-12T19:06:12.257Z,100424.69
2023-03-12T19:08:39.084Z,100424.44
2023-03-12T19:11:06.534Z,100420.09
2023-03-12T19:13:33.491Z,100422.06
2023-03-12T19:16:00.794Z,100425.84
2023-03-12T19:18:30.512Z,100413.63
2023-03-12T19:20:57.369Z,100400.25
2023-03-12T19:23:26.996Z,100417.47
2023-03-12T19:25:56.063Z,100415.94
2023-03-12T19:28:26.340Z,100431.31
2023-03-12T19:30:58.662Z,100431.97
2023-03-12T19:33:31.508Z,100433.56
2023-03-12T19:36:03.048Z,100441.66
2023-03-12T19:38:35.394Z,100444.50
2023-03-12T19:41:02.053Z,100447.91
2023-03-12T19:43:31.225Z,100461.69
2023-03-12T19:46:00.252Z,100467.66
2023-03-12T19:48:27.016Z,100469.31
2023-03-12T19:50:54.848Z,100468.41
2023-03-12T19:53:21.742Z,100467.88
2023-03-12T19:55:48.874Z,100466.09
2023-03-12T19:58:15.953Z,100464.72
2023-03-12T20:00:42.728Z,100465.84
2023-03-12T20:03:12.189Z,100461.63
2023-03-12T20:05:38.884Z,100456.41
2023-03-12T20:08:05.731Z,100459.13
2023-03-12T20:10:35.596Z,100460.16
2023-03-12T20:13:02.187Z,100457.94
2023-03-12T20:15:28.978Z,100452.53
2023-03-12T20:17:58.332Z,100462.44
2023-03-12T20:20:25.484Z,100459.31
2023-03-12T20:22:54.795Z,100454.72
2023-03-12T20:25:21.537Z,100460.50
2023-03-12T20:27:48.336Z,100463.66
2023-03-12T20:30:17.466Z,100479.22
2023-03-12T20:32:47.173Z,100483.66
2023-03-12T20:35:16.287Z,100475.59
2023-03-12T20:37:43.153Z,100471.66
2023-03-12T20:40:10.149Z,100457.78
2023-03-12T20:42:36.850Z,100449.91
2023-03-12T20:45:06.376Z,100449.03
2023-03-12T20:47:34.632Z,100452.00
2023-03-12T20:50:03.465Z,100447.81
2023-03-12T20:52:30.221Z,100459.34
2023-03-12T20:54:59.126Z,100471.88
2023-03-12T20:57:28.834Z,100468.59
2023-03-12T20:59:55.499Z,100473.16
2023-03-12T21:02:22.601Z,100474.13
2023-03-12T21:04:53.583Z,100482.75
2023-03-12T21:07:20.292Z,100474.56
2023-03-12T21:09:49.381Z,100479.38
2023-03-12T21:12:16.382Z,100489.84
2023-03-12T21:14:47.482Z,100489.69
2023-03-12T21:17:16.427Z,100480.84
2023-03-12T21:19:43.334Z,100474.97
2023-03-12T21:22:10.291Z,100462.81
2023-03-12T21:24:37.133Z,100472.44
2023-03-12T21:27:06.195Z,100471.22
2023-03-12T21:29:34.272Z,100472.09
2023-03-12T21:32:00.936Z,100460.91
2023-03-12T21:34:30.584Z,100465.69
2023-03-12T21:36:57.457Z,100468.09
2023-03-12T21:39:27.605Z,100472.75
2023-03-12T21:41:54.457Z,100471.81
2023-03-12T21:44:23.448Z,100464.09
2023-03-12T21:46:50.168Z,100460.03
2023-03-12T21:49:19.625Z,100463.78
2023-03-12T21:51:46.331Z,100463.34
2023-03-12T21:54:12.942Z,100459.88
2023-03-12T21:56:42.185Z,100461.50
2023-03-12T21:59:08.940Z,100464.97
2023-03-12T22:01:37.928Z,100462.47
2023-03-12T22:04:07.010Z,100455.22
2023-03-12T22:06:33.616Z,100445.47
2023-03-12T22:09:00.383Z,100454.91
2023-03-12T22:11:29.508Z,100447.16
2023-03-12T22:13:56.229Z,100450.88
2023-03-12T22:16:22.936Z,100456.84
2023-03-12T22:18:52.033Z,100459.16
2023-03-12T22:21:19.545Z,100456.19
2023-03-12T22:23:50.986Z,100450.16
2023-03-12T22:26:23.924Z,100446.28
2023-03-12T22:28:53.410Z,100443.06
2023-03-12T22:31:22.949Z,100463.75
2023-03-12T22:33:49.695Z,100454.97
2023-03-12T22:36:16.778Z,100454.09
2023-03-12T22:38:43.536Z,100459.31
2023-03-12T22:41:13.350Z,100452.41
2023-03-12T22:43:42.427Z,100455.53
2023-03-12T22:46:09.429Z,100453.84
2023-03-12T22:48:36.904Z,100456.25
2023-03-12T22:51:06.573Z,100486.28
2023-03-12T22:53:33.399Z,100457.53
2023-03-12T22:56:01.039Z,100475.50
2023-03-12T22:58:28.030Z,100466.00
2023-03-12T23:01:00.483Z,100469.41
2023-03-12T23:03:35.497Z,100477.91
2023-03-12T23:06:10.725Z,100478.06
2023-03-12T23:08:37.631Z,100474.41
2023-03-12T23:11:09.981Z,100495.88
2023-03-12T23:13:49.858Z,100489.19
2023-03-12T23:16:25.609Z,100502.06
2023-03-12T23:18:57.204Z,100491.22
2023-03-12T23:21:27.394Z,100503.63
2023-03-12T23:23:56.549Z,100509.00
2023-03-12T23:26:29.537Z,100508.69
2023-03-12T23:29:04.404Z,100499.19
2023-03-12T23:31:34.643Z,100504.13
2023-03-12T23:34:09.540Z,100499.09
2023-03-12T23:36:39.209Z,100505.72
2023-03-12T23:39:21.354Z,100517.47
2023-03-12T23:41:53.264Z,100524.72
2023-03-12T23:44:20.174Z,100518.44
2023-03-12T23:46:49.973Z,100519.47
2023-03-12T23:49:19.098Z,100511.09
2023-03-12T23:51:50.354Z,100519.41
2023-03-12T23:54:16.956Z,100515.13
2023-03-12T23:56:43.692Z,100502.81
2023-03-12T23:59:22.310Z,100524.97
